createdAt,value
2023-05-05T00:01:44.906Z,3.58
2023-05-05T00:06:47.546Z,3.06
2023-05-05T00:11:49.891Z,4.87
2023-05-05T00:16:52.835Z,6.62
2023-05-05T00:21:55.214Z,5.69
2023-05-05T00:26:57.790Z,5.84
2023-05-05T00:32:00.256Z,4.82
2023-05-05T00:37:03.848Z,5.28
2023-05-05T00:42:06.344Z,3.17
2023-05-05T00:47:09.913Z,4.41
2023-05-05T00:52:12.463Z,3.73
2023-05-05T00:57:14.785Z,6.19
2023-05-05T01:02:17.173Z,5.26
2023-05-05T01:07:54.986Z,6.19
2023-05-05T01:13:18.630Z,6.15
2023-05-05T01:18:33.472Z,6.14
2023-05-05T01:23:54.614Z,6.05
2023-05-05T01:29:24.821Z,6.08
2023-05-05T01:34:28.213Z,6.15
2023-05-05T01:39:35.263Z,5.37
2023-05-05T01:44:38.434Z,5.46
2023-05-05T01:49:42.437Z,5.30
2023-05-05T01:54:46.007Z,5.35
2023-05-05T01:59:48.979Z,5.17
2023-05-05T02:04:52.781Z,4.37
2023-05-05T02:09:56.027Z,5.56
2023-05-05T02:15:00.383Z,5.22
2023-05-05T02:20:03.606Z,5.33
2023-05-05T02:25:06.772Z,5.33
2023-05-05T02:30:11.369Z,5.47
2023-05-05T02:35:21.842Z,5.33
2023-05-05T02:40:27.248Z,5.45
2023-05-05T02:45:31.201Z,5.44
2023-05-05T02:50:33.642Z,5.01
2023-05-05T02:56:13.263Z,5.48
2023-05-05T03:01:51.460Z,5.42
2023-05-05T03:07:00.501Z,5.08
2023-05-05T03:12:07.010Z,5.30
2023-05-05T03:17:20.727Z,5.26
2023-05-05T03:22:23.431Z,5.02
2023-05-05T03:27:26.368Z,4.98
2023-05-05T03:32:29.231Z,4.98
2023-05-05T03:37:31.865Z,4.78
2023-05-05T03:42:34.817Z,4.84
2023-05-05T03:47:37.760Z,5.43
2023-05-05T03:52:40.965Z,5.66
2023-05-05T03:57:43.465Z,5.03
2023-05-05T04:02:45.922Z,5.22
2023-05-05T04:07:51.167Z,5.67
2023-05-05T04:12:53.643Z,5.00
2023-05-05T04:17:56.125Z,5.78
2023-05-05T04:22:58.458Z,5.72
2023-05-05T04:28:01.296Z,6.08
2023-05-05T04:33:03.924Z,6.22
2023-05-05T04:38:06.422Z,6.40
2023-05-05T04:43:09.019Z,6.46
2023-05-05T04:48:11.922Z,6.55
2023-05-05T04:53:14.208Z,6.31
2023-05-05T04:58:16.737Z,6.44
2023-05-05T05:03:20.662Z,6.96
2023-05-05T05:08:23.125Z,7.12
2023-05-05T05:13:25.970Z,7.08
2023-05-05T05:18:28.411Z,7.16
2023-05-05T05:23:31.151Z,6.74
2023-05-05T05:28:34.831Z,7.27
2023-05-05T05:33:38.146Z,6.80
2023-05-05T05:38:41.235Z,7.77
2023-05-05T05:43:44.162Z,7.54
2023-05-05T05:48:46.844Z,7.29
2023-05-05T05:53:49.656Z,7.41
2023-05-05T05:58:52.399Z,7.20
2023-05-05T06:03:55.015Z,7.72
2023-05-05T06:08:57.412Z,7.23
2023-05-05T06:14:00.006Z,7.99
2023-05-05T06:19:02.524Z,8.16
2023-05-05T06:24:05.504Z,7.56
2023-05-05T06:29:10.530Z,7.34
2023-05-05T06:34:14.502Z,7.61
2023-05-05T06:39:17.250Z,7.74
2023-05-05T06:44:19.603Z,7.31
2023-05-05T06:49:21.783Z,7.41
2023-05-05T06:54:24.141Z,7.04
2023-05-05T07:04:59.219Z,7.25
2023-05-05T07:27:54.039Z,6.58
2023-05-05T07:32:57.139Z,7.01
2023-05-05T07:37:59.415Z,6.77
2023-05-05T07:43:01.719Z,6.83
2023-05-05T07:48:04.296Z,6.40
2023-05-05T07:53:14.471Z,6.53
2023-05-05T07:58:17.620Z,6.65
2023-05-05T08:03:22.025Z,6.12
2023-05-05T08:08:25.267Z,6.34
2023-05-05T08:13:28.832Z,6.45
2023-05-05T08:18:31.215Z,6.59
2023-05-05T08:23:34.236Z,5.81
2023-05-05T08:28:37.220Z,6.30
2023-05-05T08:33:39.636Z,6.36
2023-05-05T08:38:42.156Z,6.33
2023-05-05T08:43:46.028Z,6.54
2023-05-05T08:48:49.144Z,6.27
2023-05-05T08:53:54.705Z,6.71
2023-05-05T08:58:57.578Z,6.57
2023-05-05T09:04:00.329Z,6.67
2023-05-05T09:09:02.712Z,6.78
2023-05-05T09:14:05.186Z,6.59
2023-05-05T09:19:07.929Z,6.05
2023-05-05T09:24:11.616Z,6.74
2023-05-05T09:29:21.393Z,6.27
2023-05-05T09:34:23.910Z,6.77
2023-05-05T09:39:26.749Z,6.52
2023-05-05T09:44:37.032Z,6.79
2023-05-05T09:49:39.748Z,6.53
2023-05-05T09:54:43.175Z,6.79
2023-05-05T09:59:58.218Z,6.71
2023-05-05T10:05:15.251Z,6.64
2023-05-05T10:10:18.783Z,6.62
2023-05-05T10:15:23.230Z,6.45
2023-05-05T10:20:25.936Z,6.67
2023-05-05T10:25:35.924Z,6.67
2023-05-05T10:30:43.887Z,6.54
2023-05-05T10:35:47.416Z,6.69
2023-05-05T10:40:50.422Z,5.92
2023-05-05T10:45:53.413Z,6.31
2023-05-05T10:51:11.681Z,6.46
2023-05-05T10:56:43.118Z,6.59
2023-05-05T11:01:46.351Z,6.43
2023-05-05T11:07:14.425Z,6.61
2023-05-05T11:12:17.432Z,6.57
2023-05-05T11:17:45.061Z,6.68
2023-05-05T11:23:04.408Z,6.62
2023-05-05T11:28:08.798Z,6.59
2023-05-05T11:33:26.039Z,6.36
2023-05-05T11:39:06.225Z,7.03
2023-05-05T11:44:09.345Z,7.16
2023-05-05T11:49:11.953Z,6.97
2023-05-05T11:54:14.432Z,7.07
2023-05-05T11:59:17.296Z,7.37
2023-05-05T12:04:20.055Z,6.87
2023-05-05T12:09:23.141Z,7.43
2023-05-05T12:14:26.002Z,7.44
2023-05-05T12:19:30.668Z,7.51
2023-05-05T12:24:33.224Z,7.17
2023-05-05T12:29:35.621Z,7.82
2023-05-05T12:34:38.083Z,7.44
2023-05-05T12:39:40.486Z,7.68
2023-05-05T12:44:44.589Z,7.31
2023-05-05T12:49:48.145Z,7.96
2023-05-05T12:54:55.192Z,8.05
2023-05-05T12:59:58.334Z,7.60
2023-05-05T13:05:00.711Z,7.84
2023-05-05T13:10:12.857Z,7.89
2023-05-05T13:15:15.434Z,7.99
2023-05-05T13:20:17.794Z,8.14
2023-05-05T13:25:20.472Z,8.14
2023-05-05T13:30:22.892Z,8.18
2023-05-05T13:35:25.472Z,8.04
2023-05-05T13:40:27.964Z,8.14
2023-05-05T13:45:30.665Z,8.11
2023-05-05T13:50:33.083Z,8.08
2023-05-05T13:55:37.312Z,8.07
2023-05-05T14:00:39.790Z,8.10
2023-05-05T14:05:46.593Z,8.08
2023-05-05T14:10:50.192Z,7.32
2023-05-05T14:15:54.389Z,8.07
2023-05-05T14:20:56.956Z,8.06
2023-05-05T14:25:59.378Z,7.94
2023-05-05T14:31:02.179Z,8.02
2023-05-05T14:36:04.872Z,7.94
2023-05-05T14:41:07.182Z,8.18
2023-05-05T14:46:09.695Z,7.86
2023-05-05T14:51:12.238Z,8.14
2023-05-05T14:56:14.768Z,7.56
2023-05-05T15:01:17.188Z,7.45
2023-05-05T15:06:20.976Z,8.13
2023-05-05T15:11:23.230Z,7.95
2023-05-05T15:16:28.466Z,7.71
2023-05-05T15:21:30.890Z,7.82
2023-05-05T15:26:33.253Z,7.91
2023-05-05T15:31:37.028Z,7.62
2023-05-05T15:36:39.457Z,7.61
2023-05-05T15:41:43.183Z,7.24
2023-05-05T15:46:46.225Z,7.69
2023-05-05T15:51:49.520Z,7.66
2023-05-05T15:56:51.820Z,7.58
2023-05-05T16:01:54.536Z,7.45
2023-05-05T16:06:58.394Z,6.81
2023-05-05T16:12:00.743Z,6.98
2023-05-05T16:17:03.205Z,7.05
2023-05-05T16:22:05.778Z,7.08
2023-05-05T16:27:08.345Z,7.46
2023-05-05T16:32:10.772Z,7.14
2023-05-05T16:37:13.678Z,7.04
2023-05-05T16:42:16.241Z,7.08
2023-05-05T16:47:18.576Z,7.07
2023-05-05T16:52:20.938Z,6.93
2023-05-05T16:57:23.642Z,6.83
2023-05-05T17:02:26.140Z,6.53
2023-05-05T17:07:28.555Z,6.41
2023-05-05T17:12:31.009Z,5.84
2023-05-05T17:17:33.477Z,6.35
2023-05-05T17:22:35.839Z,5.91
2023-05-05T17:27:38.406Z,6.08
2023-05-05T17:32:40.826Z,5.85
2023-05-05T17:37:43.141Z,5.21
2023-05-05T17:42:45.586Z,5.65
2023-05-05T17:47:47.972Z,4.75
2023-05-05T17:52:50.415Z,5.12
2023-05-05T17:57:52.947Z,5.15
2023-05-05T18:02:55.465Z,5.03
2023-05-05T18:07:57.874Z,4.93
2023-05-05T18:13:00.299Z,4.99
2023-05-05T18:18:02.667Z,4.13
2023-05-05T18:23:05.003Z,4.58
2023-05-05T18:28:07.829Z,4.34
2023-05-05T18:33:10.360Z,4.40
2023-05-05T18:38:13.032Z,4.50
2023-05-05T18:43:15.376Z,3.49
2023-05-05T18:48:19.609Z,3.66
2023-05-05T18:53:22.098Z,4.02
2023-05-05T18:58:25.005Z,3.82
2023-05-05T19:03:27.444Z,3.91
2023-05-05T19:08:31.512Z,3.68
2023-05-05T19:13:33.925Z,3.91
2023-05-05T19:18:36.398Z,3.83
2023-05-05T19:23:39.070Z,3.76
2023-05-05T19:28:41.778Z,3.22
2023-05-05T19:33:45.972Z,3.59
2023-05-05T19:38:48.523Z,3.22
2023-05-05T19:43:50.917Z,3.47
2023-05-05T19:48:53.431Z,3.06
2023-05-05T19:53:55.905Z,2.47
2023-05-05T19:59:02.347Z,2.83
2023-05-05T20:04:04.810Z,2.99
2023-05-05T20:09:07.390Z,3.15
2023-05-05T20:14:09.738Z,2.98
2023-05-05T20:19:12.201Z,2.85
2023-05-05T20:24:14.621Z,3.04
2023-05-05T20:29:19.665Z,2.62
2023-05-05T20:34:24.420Z,2.93
2023-05-05T20:39:27.064Z,2.85
2023-05-05T20:44:29.404Z,2.05
2023-05-05T20:49:31.773Z,2.52
2023-05-05T20:54:34.319Z,2.58
2023-05-05T20:59:36.642Z,2.26
2023-05-05T21:04:39.088Z,2.26
2023-05-05T21:09:41.816Z,2.46
2023-05-05T21:14:45.655Z,2.58
2023-05-05T21:19:47.912Z,2.54
2023-05-05T21:24:50.227Z,2.31
2023-05-05T21:29:52.510Z,2.14
2023-05-05T21:34:54.808Z,2.32
2023-05-05T21:39:57.180Z,2.35
2023-05-05T21:45:02.453Z,2.13
2023-05-05T21:50:07.691Z,2.30
2023-05-05T21:55:11.337Z,2.08
2023-05-05T22:00:17.076Z,2.25
2023-05-05T22:05:19.736Z,2.07
2023-05-05T22:10:22.324Z,2.22
2023-05-05T22:15:30.019Z,1.78
2023-05-05T22:20:35.779Z,2.16
2023-05-05T22:25:38.222Z,1.76
2023-05-05T22:30:40.945Z,1.49
2023-05-05T22:35:43.421Z,1.70
2023-05-05T22:40:46.180Z,1.65
2023-05-05T22:45:48.592Z,2.04
2023-05-05T22:50:51.316Z,1.99
2023-05-05T22:55:53.656Z,1.97
2023-05-05T23:00:56.506Z,1.48
2023-05-05T23:05:58.899Z,0.97
2023-05-05T23:11:01.241Z,1.08
2023-05-05T23:16:03.686Z,0.93
2023-05-05T23:21:06.099Z,1.26
2023-05-05T23:26:08.514Z,1.49
2023-05-05T23:31:11.025Z,1.64
2023-05-05T23:36:13.481Z,1.41
2023-05-05T23:41:15.896Z,1.26
2023-05-05T23:46:18.248Z,1.36
2023-05-05T23:51:20.650Z,0.81
2023-05-05T23:56:23.858Z,0.70
